Time,TemperatureF,DewpointF,PressureIn,WindDirection,WindDirectionDegrees,WindSpeedMPH,WindSpeedGustMPH,Humidity,HourlyPrecipIn,Conditions,Clouds,dailyrainin,SolarRadiationWatts/m^2,SoftwareType,DateUTC
2014-02-25 00:00:00,39.8,27.9,30.00,NNE,14,0.0,0.0,62,0.00,,CLR,0.00,0.00,VWS V15.00,2014-02-25 05:00:00,
2014-02-25 00:01:00,41.3,30.1,30.01,NNE,14,0.0,0.0,64,0.00,,CLR,0.00,0.00,VWS V15.00,2014-02-25 05:01:00,
2014-02-25 00:06:00,41.2,30.3,30.01,NNE,14,0.0,0.0,65,0.00,,CLR,0.00,0.00,VWS V15.00,2014-02-25 05:06:00,
2014-02-25 00:11:00,41.1,30.2,30.00,NNE,14,0.0,0.0,65,0.00,,CLR,0.00,0.00,VWS V15.00,2014-02-25 05:11:00,
2014-02-25 00:16:00,40.8,30.3,30.00,NNE,14,0.0,0.0,66,0.00,,CLR,0.00,0.00,VWS V15.00,2014-02-25 05:16:00,
2014-02-25 00:21:00,40.6,30.1,30.00,NNE,14,0.0,0.0,66,0.00,,CLR,0.00,0.00,VWS V15.00,2014-02-25 05:21:00,
2014-02-25 00:26:00,40.5,30.0,30.00,NNE,14,0.0,0.0,66,0.00,,CLR,0.00,0.00,VWS V15.00,2014-02-25 05:26:00,
2014-02-25 00:30:00,39.3,27.0,29.99,NNE,14,0.0,0.0,61,0.00,,CLR,0.00,0.00,VWS V15.00,2014-02-25 05:30:00,
2014-02-25 00:31:00,40.3,29.5,30.00,NNE,14,0.0,0.0,65,0.00,,CLR,0.00,0.00,VWS V15.00,2014-02-25 05:31:00,
2014-02-25 00:36:00,40.3,29.5,30.00,NNE,14,0.0,0.0,65,0.00,,CLR,0.00,0.00,VWS V15.00,2014-02-25 05:36:00,
2014-02-25 00:41:00,40.2,29.4,30.00,NNE,14,0.0,0.0,65,0.00,,CLR,0.00,0.00,VWS V15.00,2014-02-25 05:41:00,
2014-02-25 00:46:00,40.1,29.3,30.00,NNE,14,0.0,0.0,65,0.00,,CLR,0.00,0.00,VWS V15.00,2014-02-25 05:46:00,
2014-02-25 00:51:00,40.1,29.3,30.00,NNE,14,0.0,0.0,65,0.00,,CLR,0.00,0.00,VWS V15.00,2014-02-25 05:51:00,
2014-02-25 00:56:00,39.9,28.0,30.00,NNE,14,0.0,0.0,62,0.00,,CLR,0.00,0.00,VWS V15.00,2014-02-25 05:56:00,
2014-02-25 01:00:00,38.0,27.7,29.99,NNE,14,0.0,0.0,66,0.00,,CLR,0.00,0.00,VWS V15.00,2014-02-25 06:00:00,
2014-02-25 01:13:00,39.6,26.9,29.99,NNE,14,0.0,0.0,60,0.00,,CLR,0.00,0.00,VWS V15.00,2014-02-25 06:13:00,
2014-02-25 01:18:00,39.6,26.5,29.99,NNE,14,0.0,0.0,59,0.00,,CLR,0.00,0.00,VWS V15.00,2014-02-25 06:18:00,
2014-02-25 01:23:00,39.5,26.8,29.99,NNE,14,0.0,0.0,60,0.00,,CLR,0.00,0.00,VWS V15.00,2014-02-25 06:23:00,
2014-02-25 01:28:00,39.5,27.2,29.99,NNE,14,0.0,0.0,61,0.00,,CLR,0.00,0.00,VWS V15.00,2014-02-25 06:28:00,
2014-02-25 01:30:00,36.9,29.4,29.98,NNE,14,0.0,0.0,74,0.00,,CLR,0.00,0.00,VWS V15.00,2014-02-25 06:30:00,
2014-02-25 01:33:00,39.3,27.4,29.99,NNE,14,0.0,0.0,62,0.00,,CLR,0.00,0.00,VWS V15.00,2014-02-25 06:33:00,
2014-02-25 01:38:00,39.1,27.6,29.99,NNE,14,0.0,0.0,63,0.00,,CLR,0.00,0.00,VWS V15.00,2014-02-25 06:38:00,
2014-02-25 01:43:00,38.9,27.8,29.99,NNE,14,0.0,0.0,64,0.00,,CLR,0.00,0.00,VWS V15.00,2014-02-25 06:43:00,
2014-02-25 01:48:00,38.6,27.9,29.99,NNE,14,0.0,0.0,65,0.00,,CLR,0.00,0.00,VWS V15.00,2014-02-25 06:48:00,
2014-02-25 01:53:00,38.3,27.6,29.99,NNE,14,0.0,0.0,65,0.00,,CLR,0.00,0.00,VWS V15.00,2014-02-25 06:53:00,
2014-02-25 01:58:00,38.2,27.9,29.99,NNE,14,0.0,0.0,66,0.00,,CLR,0.00,0.00,VWS V15.00,2014-02-25 06:58:00,
2014-02-25 02:00:00,35.9,29.7,29.97,NNE,14,0.0,0.0,78,0.00,,CLR,0.00,0.00,VWS V15.00,2014-02-25 07:00:00,
2014-02-25 02:03:00,38.0,28.0,29.99,NNE,14,0.0,0.0,67,0.00,,CLR,0.00,0.00,VWS V15.00,2014-02-25 07:03:00,
2014-02-25 02:04:00,37.9,27.9,29.99,NNE,14,0.0,0.0,67,0.00,,CLR,0.00,0.00,VWS V15.00,2014-02-25 07:04:00,
2014-02-25 02:09:00,37.8,28.2,29.98,NNE,14,0.0,0.0,68,0.00,,CLR,0.00,0.00,VWS V15.00,2014-02-25 07:09:00,
2014-02-25 02:14:00,37.6,28.4,29.98,NNE,14,0.0,0.0,69,0.00,,CLR,0.00,0.00,VWS V15.00,2014-02-25 07:14:00,
2014-02-25 02:19:00,37.3,28.4,29.98,NNE,14,0.0,0.0,70,0.00,,CLR,0.00,0.00,VWS V15.00,2014-02-25 07:19:00,
2014-02-25 02:24:00,37.2,29.0,29.98,NNE,14,0.0,0.0,72,0.00,,CLR,0.00,0.00,VWS V15.00,2014-02-25 07:24:00,
2014-02-25 02:29:00,37.0,29.5,29.98,NNE,14,0.0,0.0,74,0.00,,CLR,0.00,0.00,VWS V15.00,2014-02-25 07:29:00,
2014-02-25 02:30:00,35.0,29.2,29.96,NNE,14,0.0,0.0,79,0.00,,CLR,0.00,0.00,VWS V15.00,2014-02-25 07:30:00,
2014-02-25 02:34:00,36.8,29.6,29.98,NNE,14,0.0,0.0,75,0.00,,CLR,0.00,0.00,VWS V15.00,2014-02-25 07:34:00,
2014-02-25 02:39:00,36.6,29.4,29.98,NNE,14,0.0,0.0,75,0.00,,CLR,0.00,0.00,VWS V15.00,2014-02-25 07:39:00,
2014-02-25 02:44:00,36.5,29.7,29.97,NNE,14,0.0,0.0,76,0.00,,CLR,0.00,0.00,VWS V15.00,2014-02-25 07:44:00,
2014-02-25 02:49:00,36.3,29.8,29.97,NNE,14,0.0,0.0,77,0.00,,CLR,0.00,0.00,VWS V15.00,2014-02-25 07:49:00,
2014-02-25 02:54:00,36.2,29.7,29.97,NNE,14,0.0,0.0,77,0.00,,CLR,0.00,0.00,VWS V15.00,2014-02-25 07:54:00,
2014-02-25 02:59:00,36.0,29.8,29.97,NNE,14,0.0,0.0,78,0.00,,CLR,0.00,0.00,VWS V15.00,2014-02-25 07:59:00,
2014-02-25 03:00:00,35.0,28.5,29.97,NNE,14,0.0,0.0,77,0.00,,CLR,0.00,0.00,VWS V15.00,2014-02-25 08:00:00,
2014-02-25 03:04:00,35.9,29.7,29.97,NNE,14,0.0,0.0,78,0.00,,CLR,0.00,0.00,VWS V15.00,2014-02-25 08:04:00,
2014-02-25 03:09:00,35.8,29.9,29.97,NNE,14,0.0,0.0,79,0.00,,CLR,0.00,0.00,VWS V15.00,2014-02-25 08:09:00,
2014-02-25 03:14:00,35.6,29.7,29.97,NNE,14,0.0,0.0,79,0.00,,CLR,0.00,0.00,VWS V15.00,2014-02-25 08:14:00,
2014-02-25 03:19:00,35.5,29.6,29.96,NNE,14,0.0,0.0,79,0.00,,CLR,0.00,0.00,VWS V15.00,2014-02-25 08:19:00,
2014-02-25 03:24:00,35.3,29.8,29.96,NNE,14,0.0,0.0,80,0.00,,CLR,0.00,0.00,VWS V15.00,2014-02-25 08:24:00,
2014-02-25 03:29:00,35.2,29.7,29.96,NNE,14,0.0,0.0,80,0.00,,CLR,0.00,0.00,VWS V15.00,2014-02-25 08:29:00,
2014-02-25 03:30:00,34.9,27.5,29.97,NNE,14,0.0,0.0,74,0.00,,CLR,0.00,0.00,VWS V15.00,2014-02-25 08:30:00,
2014-02-25 03:34:00,35.0,28.9,29.95,NNE,14,0.0,0.0,78,0.00,,CLR,0.00,0.00,VWS V15.00,2014-02-25 08:34:00,
2014-02-25 03:39:00,34.9,28.4,29.96,NNE,14,0.0,0.0,77,0.00,,CLR,0.00,0.00,VWS V15.00,2014-02-25 08:39:00,
2014-02-25 03:44:00,35.0,28.9,29.96,NNE,14,0.0,0.0,78,0.00,,CLR,0.00,0.00,VWS V15.00,2014-02-25 08:44:00,
2014-02-25 03:49:00,35.0,28.9,29.96,NNE,14,0.0,0.0,78,0.00,,CLR,0.00,0.00,VWS V15.00,2014-02-25 08:49:00,
2014-02-25 03:54:00,35.0,28.5,29.97,NNE,14,0.0,0.0,77,0.00,,CLR,0.00,0.00,VWS V15.00,2014-02-25 08:54:00,
2014-02-25 03:59:00,35.0,28.5,29.97,NNE,14,0.0,0.0,77,0.00,,CLR,0.00,0.00,VWS V15.00,2014-02-25 08:59:00,
2014-02-25 04:00:00,35.5,28.0,29.97,NNE,14,0.0,0.0,74,0.00,,CLR,0.00,0.00,VWS V15.00,2014-02-25 09:00:00,
2014-02-25 04:04:00,34.9,28.1,29.96,NNE,14,0.0,0.0,76,0.00,,CLR,0.00,0.00,VWS V15.00,2014-02-25 09:04:00,
2014-02-25 04:09:00,35.0,27.9,29.97,NNE,14,0.0,0.0,75,0.00,,CLR,0.00,0.00,VWS V15.00,2014-02-25 09:09:00,
2014-02-25 04:14:00,35.0,27.9,29.97,NNE,14,0.0,0.0,75,0.00,,CLR,0.00,0.00,VWS V15.00,2014-02-25 09:14:00,
2014-02-25 04:19:00,35.0,27.9,29.97,NNE,14,0.0,0.0,75,0.00,,CLR,0.00,0.00,VWS V15.00,2014-02-25 09:19:00,
2014-02-25 04:24:00,35.0,27.6,29.97,NNE,14,0.0,0.0,74,0.00,,CLR,0.00,0.00,VWS V15.00,2014-02-25 09:24:00,
2014-02-25 04:29:00,35.0,27.6,29.97,NNE,14,0.0,0.0,74,0.00,,CLR,0.00,0.00,VWS V15.00,2014-02-25 09:29:00,
2014-02-25 04:30:00,34.9,28.1,29.98,NNE,14,0.0,0.0,76,0.00,,CLR,0.00,0.00,VWS V15.00,2014-02-25 09:30:00,
2014-02-25 04:34:00,34.9,27.1,29.97,NNE,14,0.0,0.0,73,0.00,,CLR,0.00,0.00,VWS V15.00,2014-02-25 09:34:00,
2014-02-25 04:39:00,34.9,27.5,29.96,NNE,14,0.0,0.0,74,0.00,,CLR,0.00,0.00,VWS V15.00,2014-02-25 09:39:00,
2014-02-25 04:44:00,34.9,26.8,29.96,NNE,14,0.0,0.0,72,0.00,,CLR,0.00,0.00,VWS V15.00,2014-02-25 09:44:00,
2014-02-25 04:49:00,35.0,26.9,29.96,NNE,14,0.0,0.0,72,0.00,,CLR,0.00,0.00,VWS V15.00,2014-02-25 09:49:00,
2014-02-25 04:54:00,35.2,27.1,29.96,NNE,14,0.0,0.0,72,0.00,,CLR,0.00,0.00,VWS V15.00,2014-02-25 09:54:00,
2014-02-25 04:59:00,35.5,28.0,29.96,NNE,14,0.0,0.0,74,0.00,,CLR,0.00,0.00,VWS V15.00,2014-02-25 09:59:00,
2014-02-25 05:00:00,34.1,27.7,29.98,NNE,14,0.0,0.0,77,0.00,,CLR,0.00,0.00,VWS V15.00,2014-02-25 10:00:00,
2014-02-25 05:04:00,35.6,28.1,29.97,NNE,14,0.0,0.0,74,0.00,,CLR,0.00,0.00,VWS V15.00,2014-02-25 10:04:00,
2014-02-25 05:09:00,35.5,28.0,29.97,NNE,14,0.0,0.0,74,0.00,,CLR,0.00,0.00,VWS V15.00,2014-02-25 10:09:00,
2014-02-25 05:14:00,35.3,27.9,29.97,NNE,14,0.0,0.0,74,0.00,,CLR,0.00,0.00,VWS V15.00,2014-02-25 10:14:00,
2014-02-25 05:19:00,35.3,27.9,29.97,NNE,14,0.0,0.0,74,0.00,,CLR,0.00,0.00,VWS V15.00,2014-02-25 10:19:00,
2014-02-25 05:24:00,35.0,27.9,29.98,NNE,14,0.0,0.0,75,0.00,,CLR,0.00,0.00,VWS V15.00,2014-02-25 10:24:00,
2014-02-25 05:29:00,34.9,28.1,29.98,NNE,14,0.0,0.0,76,0.00,,CLR,0.00,0.00,VWS V15.00,2014-02-25 10:29:00,
2014-02-25 05:30:00,33.8,26.4,29.98,NNE,14,0.0,0.0,74,0.00,,CLR,0.00,0.00,VWS V15.00,2014-02-25 10:30:00,
2014-02-25 05:34:00,34.7,27.9,29.98,NNE,14,0.0,0.0,76,0.00,,CLR,0.00,0.00,VWS V15.00,2014-02-25 10:34:00,
2014-02-25 05:39:00,34.6,27.5,29.98,NNE,14,0.0,0.0,75,0.00,,CLR,0.00,0.00,VWS V15.00,2014-02-25 10:39:00,
2014-02-25 05:44:00,34.4,27.6,29.98,NNE,14,0.0,0.0,76,0.00,,CLR,0.00,0.00,VWS V15.00,2014-02-25 10:44:00,
2014-02-25 05:49:00,34.4,28.0,29.99,NNE,14,0.0,0.0,77,0.00,,CLR,0.00,0.00,VWS V15.00,2014-02-25 10:49:00,
2014-02-25 05:54:00,34.4,28.0,29.99,NNE,14,0.0,0.0,77,0.00,,CLR,0.00,0.00,VWS V15.00,2014-02-25 10:54:00,
2014-02-25 05:59:00,34.3,27.9,29.98,NNE,14,0.0,0.0,77,0.00,,CLR,0.00,0.00,VWS V15.00,2014-02-25 10:59:00,
2014-02-25 06:00:00,33.5,26.8,29.95,NNE,14,0.0,0.0,76,0.00,,CLR,0.00,0.00,VWS V15.00,2014-02-25 11:00:00,
2014-02-25 06:04:00,34.1,27.3,29.99,NNE,14,0.0,0.0,76,0.00,,CLR,0.00,0.00,VWS V15.00,2014-02-25 11:04:00,
2014-02-25 06:09:00,34.0,26.9,29.98,NNE,14,0.0,0.0,75,0.00,,CLR,0.00,0.00,VWS V15.00,2014-02-25 11:09:00,
2014-02-25 06:14:00,33.8,26.7,29.98,NNE,14,0.0,0.0,75,0.00,,CLR,0.00,0.00,VWS V15.00,2014-02-25 11:14:00,
2014-02-25 06:19:00,33.8,26.1,29.98,NNE,14,0.0,0.0,73,0.00,,CLR,0.00,0.00,VWS V15.00,2014-02-25 11:19:00,
2014-02-25 06:24:00,33.8,26.1,29.97,NNE,14,0.0,0.0,73,0.00,,CLR,0.00,0.00,VWS V15.00,2014-02-25 11:24:00,
2014-02-25 06:29:00,33.8,26.4,29.98,NNE,14,0.0,0.0,74,0.00,,CLR,0.00,0.00,VWS V15.00,2014-02-25 11:29:00,
2014-02-25 06:30:00,34.7,29.8,29.98,NNW,347,1.0,2.0,82,0.00,,CLR,0.00,14.00,VWS V15.00,2014-02-25 11:30:00,
2014-02-25 06:34:00,33.8,26.7,29.97,NNE,14,0.0,0.0,75,0.00,,CLR,0.00,0.00,VWS V15.00,2014-02-25 11:34:00,
2014-02-25 06:39:00,33.7,27.0,29.97,NNE,14,0.0,0.0,76,0.00,,CLR,0.00,0.00,VWS V15.00,2014-02-25 11:39:00,
2014-02-25 06:44:00,33.7,26.6,29.97,NNE,14,0.0,0.0,75,0.00,,CLR,0.00,0.00,VWS V15.00,2014-02-25 11:44:00,
2014-02-25 06:49:00,33.5,26.1,29.96,NNE,14,0.0,0.0,74,0.00,,CLR,0.00,0.00,VWS V15.00,2014-02-25 11:49:00,
2014-02-25 06:54:00,33.5,26.4,29.95,NNE,14,0.0,0.0,75,0.00,,CLR,0.00,0.00,VWS V15.00,2014-02-25 11:54:00,
2014-02-25 06:59:00,33.5,26.4,29.95,NNE,14,0.0,0.0,75,0.00,,CLR,0.00,0.00,VWS V15.00,2014-02-25 11:59:00,
2014-02-25 07:00:00,37.3,30.4,30.00,NNW,346,0.0,0.0,76,0.00,,CLR,0.00,33.00,VWS V15.00,2014-02-25 12:00:00,
2014-02-25 07:04:00,33.5,26.8,29.95,NNE,14,0.0,0.0,76,0.00,,CLR,0.00,0.00,VWS V15.00,2014-02-25 12:04:00,
2014-02-25 07:09:00,33.5,27.1,29.96,NNE,14,1.0,1.0,77,0.00,,CLR,0.00,0.00,VWS V15.00,2014-02-25 12:09:00,
2014-02-25 07:14:00,33.5,27.7,29.97,NNE,14,1.0,1.0,79,0.00,,CLR,0.00,12.00,VWS V15.00,2014-02-25 12:14:00,
2014-02-25 07:19:00,33.5,28.0,29.98,NNE,14,0.0,2.0,80,0.00,,CLR,0.00,19.00,VWS V15.00,2014-02-25 12:19:00,
2014-02-25 07:24:00,33.8,28.6,29.97,NNE,14,0.0,1.0,81,0.00,,CLR,0.00,33.00,VWS V15.00,2014-02-25 12:24:00,
2014-02-25 07:29:00,34.4,29.5,29.98,North,354,1.0,2.0,82,0.00,,CLR,0.00,33.00,VWS V15.00,2014-02-25 12:29:00,
2014-02-25 07:30:00,40.2,29.4,30.00,NNW,346,0.0,0.0,65,0.00,,CLR,0.00,123.00,VWS V15.00,2014-02-25 12:30:00,
2014-02-25 07:34:00,35.0,30.1,29.98,NNW,347,0.0,1.0,82,0.00,,FEW120,0.00,14.00,VWS V15.00,2014-02-25 12:34:00,
2014-02-25 07:39:00,35.5,30.3,29.99,NNW,346,1.0,2.0,81,0.00,,FEW120,0.00,9.00,VWS V15.00,2014-02-25 12:39:00,
2014-02-25 07:44:00,36.0,30.4,29.99,NNW,346,0.0,1.0,80,0.00,,FEW120,0.00,0.00,VWS V15.00,2014-02-25 12:44:00,
2014-02-25 07:49:00,36.5,30.6,29.99,NNW,346,0.0,1.0,79,0.00,,FEW120,0.00,0.00,VWS V15.00,2014-02-25 12:49:00,
2014-02-25 07:54:00,36.9,31.0,30.00,NNW,346,0.0,1.0,79,0.00,,FEW120,0.00,7.00,VWS V15.00,2014-02-25 12:54:00,
2014-02-25 07:59:00,37.2,30.7,29.99,NNW,346,0.0,0.0,77,0.00,,FEW120,0.00,33.00,VWS V15.00,2014-02-25 12:59:00,
2014-02-25 08:00:00,44.6,28.5,30.00,WNW,291,0.0,1.0,53,0.00,,CLR,0.00,106.00,VWS V15.00,2014-02-25 13:00:00,
2014-02-25 08:03:00,37.6,30.4,30.00,NNW,346,0.0,0.0,75,0.00,,FEW120,0.00,35.00,VWS V15.00,2014-02-25 13:03:00,
2014-02-25 08:08:00,38.0,30.5,30.00,NNW,346,0.0,0.0,74,0.00,,FEW120,0.00,26.00,VWS V15.00,2014-02-25 13:08:00,
2014-02-25 08:13:00,38.5,31.0,30.00,NNW,346,1.0,1.0,74,0.00,,FEW120,0.00,32.00,VWS V15.00,2014-02-25 13:13:00,
2014-02-25 08:18:00,38.9,31.0,30.00,NNW,346,0.0,1.0,73,0.00,,FEW120,0.00,49.00,VWS V15.00,2014-02-25 13:18:00,
2014-02-25 08:23:00,39.5,30.5,30.00,NNW,346,0.0,0.0,70,0.00,,FEW120,0.00,102.00,VWS V15.00,2014-02-25 13:23:00,
2014-02-25 08:28:00,40.1,29.7,30.00,NNW,346,0.0,0.0,66,0.00,,FEW120,0.00,100.00,VWS V15.00,2014-02-25 13:28:00,
2014-02-25 08:30:00,47.0,28.3,29.98,SE,140,1.0,2.0,48,0.00,,CLR,0.00,204.00,VWS V15.00,2014-02-25 13:30:00,
2014-02-25 08:33:00,40.8,29.6,30.00,NNW,346,0.0,0.0,64,0.00,,OVC065,0.00,144.00,VWS V15.00,2014-02-25 13:33:00,
2014-02-25 08:38:00,42.2,29.7,30.00,NNW,346,0.0,0.0,61,0.00,,OVC065,0.00,164.00,VWS V15.00,2014-02-25 13:38:00,
2014-02-25 08:43:00,43.2,29.0,30.00,WNW,295,1.0,1.0,57,0.00,,OVC065,0.00,181.00,VWS V15.00,2014-02-25 13:43:00,
2014-02-25 08:48:00,44.2,29.5,30.00,WNW,295,0.0,1.0,56,0.00,,OVC065,0.00,153.00,VWS V15.00,2014-02-25 13:48:00,
2014-02-25 08:53:00,44.5,29.4,30.00,WNW,291,0.0,1.0,55,0.00,,OVC065,0.00,88.00,VWS V15.00,2014-02-25 13:53:00,
2014-02-25 08:58:00,44.6,29.5,30.00,WNW,291,1.0,1.0,55,0.00,,OVC065,0.00,77.00,VWS V15.00,2014-02-25 13:58:00,
2014-02-25 09:00:00,48.3,25.7,29.98,South,178,0.0,2.0,41,0.00,,CLR,0.00,215.00,VWS V15.00,2014-02-25 14:00:00,
2014-02-25 09:03:00,44.8,28.7,30.00,WNW,291,0.0,1.0,53,0.00,,OVC065,0.00,137.00,VWS V15.00,2014-02-25 14:03:00,
2014-02-25 09:08:00,44.9,29.3,30.00,SSW,209,1.0,1.0,54,0.00,,OVC065,0.00,141.00,VWS V15.00,2014-02-25 14:08:00,
2014-02-25 09:13:00,45.2,28.2,29.99,South,191,0.0,1.0,51,0.00,,OVC065,0.00,151.00,VWS V15.00,2014-02-25 14:13:00,
2014-02-25 09:18:00,45.7,29.1,29.98,ENE,75,0.0,2.0,52,0.00,,OVC065,0.00,150.00,VWS V15.00,2014-02-25 14:18:00,
2014-02-25 09:23:00,46.4,29.8,29.98,NE,38,0.0,0.0,52,0.00,,OVC065,0.00,264.00,VWS V15.00,2014-02-25 14:23:00,
2014-02-25 09:28:00,47.0,27.8,29.98,ESE,119,1.0,2.0,47,0.00,,OVC065,0.00,246.00,VWS V15.00,2014-02-25 14:28:00,
2014-02-25 09:30:00,52.2,25.4,29.98,SSE,151,2.0,2.0,35,0.00,,CLR,0.00,396.00,VWS V15.00,2014-02-25 14:30:00,
2014-02-25 09:33:00,46.8,27.1,29.98,South,185,1.0,2.0,46,0.00,,OVC065,0.00,218.00,VWS V15.00,2014-02-25 14:33:00,
2014-02-25 09:38:00,47.1,26.9,29.98,South,175,0.0,2.0,45,0.00,,OVC065,0.00,176.00,VWS V15.00,2014-02-25 14:38:00,
2014-02-25 09:43:00,47.6,26.2,29.98,South,184,1.0,1.0,43,0.00,,OVC090,0.00,311.00,VWS V15.00,2014-02-25 14:43:00,
2014-02-25 09:48:00,47.9,27.6,29.98,WNW,299,1.0,2.0,45,0.00,,OVC090,0.00,259.00,VWS V15.00,2014-02-25 14:48:00,
2014-02-25 09:53:00,48.2,25.0,29.98,South,169,0.0,2.0,40,0.00,,OVC090,0.00,276.00,VWS V15.00,2014-02-25 14:53:00,
2014-02-25 09:58:00,48.2,24.4,29.98,South,181,1.0,2.0,39,0.00,,OVC090,0.00,215.00,VWS V15.00,2014-02-25 14:58:00,
2014-02-25 10:00:00,54.5,22.9,29.96,West,272,1.0,6.0,29,0.00,,CLR,0.00,297.00,VWS V15.00,2014-02-25 15:00:00,
2014-02-25 10:03:00,48.6,24.8,29.98,South,184,0.0,2.0,39,0.00,,OVC090,0.00,257.00,VWS V15.00,2014-02-25 15:03:00,
2014-02-25 10:08:00,49.5,25.0,29.98,SW,229,2.0,2.0,38,0.00,,OVC090,0.00,598.00,VWS V15.00,2014-02-25 15:08:00,
2014-02-25 10:13:00,49.9,24.0,29.98,SSE,168,1.0,2.0,36,0.00,,OVC090,0.00,408.00,VWS V15.00,2014-02-25 15:13:00,
2014-02-25 10:18:00,51.4,26.7,29.97,WSW,256,2.0,2.0,38,0.00,,OVC090,0.00,468.00,VWS V15.00,2014-02-25 15:18:00,
2014-02-25 10:23:00,51.0,24.3,29.97,SW,215,0.0,2.0,35,0.00,,OVC090,0.00,266.00,VWS V15.00,2014-02-25 15:23:00,
2014-02-25 10:28:00,51.7,24.3,29.97,NNW,339,2.0,2.0,34,0.00,,OVC090,0.00,194.00,VWS V15.00,2014-02-25 15:28:00,
2014-02-25 10:30:00,54.8,24.0,29.95,West,272,2.0,5.0,30,0.00,,CLR,0.00,336.00,VWS V15.00,2014-02-25 15:30:00,
2014-02-25 10:33:00,52.3,23.3,29.98,WSW,257,2.0,3.0,32,0.00,,OVC090,0.00,385.00,VWS V15.00,2014-02-25 15:33:00,
2014-02-25 10:38:00,52.8,24.5,29.97,South,191,2.0,3.0,33,0.00,,OVC090,0.00,500.00,VWS V15.00,2014-02-25 15:38:00,
2014-02-25 10:43:00,53.9,23.2,29.97,SE,138,0.0,3.0,30,0.00,,CLR,0.00,470.00,VWS V15.00,2014-02-25 15:43:00,
2014-02-25 10:48:00,54.4,22.8,29.96,WNW,296,2.0,5.0,29,0.00,,CLR,0.00,375.00,VWS V15.00,2014-02-25 15:48:00,
2014-02-25 10:53:00,54.5,23.7,29.96,SSW,195,1.0,3.0,30,0.00,,CLR,0.00,384.00,VWS V15.00,2014-02-25 15:53:00,
2014-02-25 10:58:00,54.8,23.2,29.96,NW,304,4.0,6.0,29,0.00,,CLR,0.00,317.00,VWS V15.00,2014-02-25 15:58:00,
2014-02-25 11:00:00,56.9,24.1,29.94,NW,312,2.0,6.0,28,0.00,,CLR,0.00,609.00,VWS V15.00,2014-02-25 16:00:00,
2014-02-25 11:03:00,54.4,22.8,29.97,West,267,2.0,6.0,29,0.00,,CLR,0.00,304.00,VWS V15.00,2014-02-25 16:03:00,
2014-02-25 11:08:00,54.4,24.4,29.96,NW,318,3.0,3.0,31,0.00,,CLR,0.00,340.00,VWS V15.00,2014-02-25 16:08:00,
2014-02-25 11:13:00,54.7,23.1,29.96,SW,234,3.0,7.0,29,0.00,,CLR,0.00,357.00,VWS V15.00,2014-02-25 16:13:00,
2014-02-25 11:18:00,55.0,23.4,29.96,WNW,301,3.0,5.0,29,0.00,,CLR,0.00,343.00,VWS V15.00,2014-02-25 16:18:00,
2014-02-25 11:23:00,55.3,22.8,29.96,South,191,2.0,4.0,28,0.00,,CLR,0.00,435.00,VWS V15.00,2014-02-25 16:23:00,
2014-02-25 11:28:00,55.0,23.4,29.96,NW,306,1.0,5.0,29,0.00,,CLR,0.00,343.00,VWS V15.00,2014-02-25 16:28:00,
2014-02-25 11:30:00,58.7,26.5,29.92,SSW,196,2.0,6.0,29,0.00,,CLR,0.00,676.00,VWS V15.00,2014-02-25 16:30:00,
2014-02-25 11:33:00,55.1,25.0,29.95,SW,236,2.0,5.0,31,0.00,,CLR,0.00,547.00,VWS V15.00,2014-02-25 16:33:00,
2014-02-25 11:38:00,55.7,24.8,29.95,WNW,282,3.0,7.0,30,0.00,,CLR,0.00,783.00,VWS V15.00,2014-02-25 16:38:00,
2014-02-25 11:43:00,56.6,24.7,29.95,West,274,3.0,4.0,29,0.00,,BKN070,0.00,799.00,VWS V15.00,2014-02-25 16:43:00,
2014-02-25 11:48:00,56.6,24.7,29.95,South,185,1.0,7.0,29,0.00,,BKN070,0.00,732.00,VWS V15.00,2014-02-25 16:48:00,
2014-02-25 11:53:00,56.9,25.0,29.95,West,268,5.0,7.0,29,0.00,,BKN070,0.00,639.00,VWS V15.00,2014-02-25 16:53:00,
2014-02-25 11:58:00,56.9,23.3,29.95,WSW,244,4.0,6.0,27,0.00,,BKN070,0.00,653.00,VWS V15.00,2014-02-25 16:58:00,
2014-02-25 12:00:00,61.8,28.4,29.90,West,280,2.0,5.0,28,0.00,,CLR,0.00,772.00,VWS V15.00,2014-02-25 17:00:00,
2014-02-25 12:03:00,57.2,25.2,29.95,WSW,243,2.0,6.0,29,0.00,,BKN070,0.00,609.00,VWS V15.00,2014-02-25 17:03:00,
2014-02-25 12:08:00,58.3,25.4,29.94,South,175,4.0,8.0,28,0.00,,BKN070,0.00,662.00,VWS V15.00,2014-02-25 17:08:00,
2014-02-25 12:13:00,58.3,25.4,29.94,SSW,206,6.0,8.0,28,0.00,,BKN070,0.00,774.00,VWS V15.00,2014-02-25 17:13:00,
2014-02-25 12:18:00,58.4,25.5,29.93,NW,312,3.0,6.0,28,0.00,,BKN070,0.00,778.00,VWS V15.00,2014-02-25 17:18:00,
2014-02-25 12:23:00,59.0,26.0,29.93,SSW,210,2.0,7.0,28,0.00,,BKN070,0.00,769.00,VWS V15.00,2014-02-25 17:23:00,
2014-02-25 12:28:00,59.0,25.1,29.92,South,182,2.0,6.0,27,0.00,,BKN070,0.00,757.00,VWS V15.00,2014-02-25 17:28:00,
2014-02-25 12:30:00,63.4,29.8,29.88,NW,306,2.0,5.0,28,0.00,,CLR,0.00,762.00,VWS V15.00,2014-02-25 17:30:00,
2014-02-25 12:33:00,58.6,25.6,29.92,West,268,4.0,8.0,28,0.00,,BKN070,0.00,676.00,VWS V15.00,2014-02-25 17:33:00,
2014-02-25 12:38:00,58.9,25.0,29.92,West,268,4.0,7.0,27,0.00,,BKN070,0.00,787.00,VWS V15.00,2014-02-25 17:38:00,
2014-02-25 12:43:00,59.8,25.8,29.91,SSE,162,3.0,5.0,27,0.00,,CLR,0.00,776.00,VWS V15.00,2014-02-25 17:43:00,
2014-02-25 12:48:00,60.7,26.5,29.91,NW,319,4.0,5.0,27,0.00,,CLR,0.00,774.00,VWS V15.00,2014-02-25 17:48:00,
2014-02-25 12:53:00,60.7,26.5,29.90,SW,233,3.0,10.0,27,0.00,,CLR,0.00,774.00,VWS V15.00,2014-02-25 17:53:00,
2014-02-25 12:58:00,61.3,27.9,29.90,SSE,161,3.0,5.0,28,0.00,,CLR,0.00,713.00,VWS V15.00,2014-02-25 17:58:00,
2014-02-25 13:00:00,64.5,30.7,29.86,SSW,200,6.0,7.0,28,0.00,,CLR,0.00,686.00,VWS V15.00,2014-02-25 18:00:00,
2014-02-25 13:03:00,62.3,27.9,29.90,WSW,244,3.0,5.0,27,0.00,,CLR,0.00,774.00,VWS V15.00,2014-02-25 18:03:00,
2014-02-25 13:08:00,61.5,28.1,29.90,NNW,335,5.0,7.0,28,0.00,,CLR,0.00,785.00,VWS V15.00,2014-02-25 18:08:00,
2014-02-25 13:13:00,62.1,28.6,29.89,West,280,3.0,5.0,28,0.00,,CLR,0.00,788.00,VWS V15.00,2014-02-25 18:13:00,
2014-02-25 13:18:00,62.4,28.0,29.89,SW,223,5.0,7.0,27,0.00,,CLR,0.00,778.00,VWS V15.00,2014-02-25 18:18:00,
2014-02-25 13:23:00,63.2,28.7,29.88,WNW,287,2.0,6.0,27,0.00,,CLR,0.00,765.00,VWS V15.00,2014-02-25 18:23:00,
2014-02-25 13:28:00,63.4,28.9,29.88,West,268,3.0,4.0,27,0.00,,CLR,0.00,760.00,VWS V15.00,2014-02-25 18:28:00,
2014-02-25 13:30:00,65.3,31.4,29.85,SSW,198,2.0,8.0,28,0.00,,CLR,0.00,646.00,VWS V15.00,2014-02-25 18:30:00,
2014-02-25 13:33:00,63.5,29.0,29.88,South,184,1.0,5.0,27,0.00,,CLR,0.00,755.00,VWS V15.00,2014-02-25 18:33:00,
2014-02-25 13:38:00,63.1,28.6,29.88,North,359,2.0,9.0,27,0.00,,CLR,0.00,751.00,VWS V15.00,2014-02-25 18:38:00,
2014-02-25 13:42:00,63.4,28.9,29.87,NNE,13,1.0,7.0,27,0.00,,CLR,0.00,750.00,VWS V15.00,2014-02-25 18:42:00,
2014-02-25 13:47:00,63.9,29.3,29.87,NW,322,3.0,6.0,27,0.00,,CLR,0.00,758.00,VWS V15.00,2014-02-25 18:47:00,
2014-02-25 13:52:00,64.7,30.0,29.87,WSW,257,3.0,6.0,27,0.00,,CLR,0.00,727.00,VWS V15.00,2014-02-25 18:52:00,
2014-02-25 13:57:00,64.3,29.6,29.86,West,268,1.0,8.0,27,0.00,,CLR,0.00,723.00,VWS V15.00,2014-02-25 18:57:00,
2014-02-25 14:00:00,66.1,33.8,29.83,NW,304,5.0,8.0,30,0.00,,CLR,0.00,584.00,VWS V15.00,2014-02-25 19:00:00,
2014-02-25 14:02:00,64.3,30.5,29.86,North,352,3.0,7.0,28,0.00,,CLR,0.00,663.00,VWS V15.00,2014-02-25 19:02:00,
2014-02-25 14:07:00,64.5,30.7,29.86,WNW,292,2.0,8.0,28,0.00,,CLR,0.00,704.00,VWS V15.00,2014-02-25 19:07:00,
2014-02-25 14:12:00,65.6,31.6,29.85,SW,223,2.0,6.0,28,0.00,,CLR,0.00,690.00,VWS V15.00,2014-02-25 19:12:00,
2014-02-25 14:17:00,64.8,31.0,29.85,West,277,5.0,11.0,28,0.00,,CLR,0.00,688.00,VWS V15.00,2014-02-25 19:17:00,
2014-02-25 14:22:00,64.8,31.0,29.85,NW,318,3.0,10.0,28,0.00,,CLR,0.00,684.00,VWS V15.00,2014-02-25 19:22:00,
2014-02-25 14:27:00,65.2,31.3,29.85,NW,319,2.0,10.0,28,0.00,,CLR,0.00,552.00,VWS V15.00,2014-02-25 19:27:00,
2014-02-25 14:30:00,66.3,34.0,29.83,West,272,6.0,8.0,30,0.00,,CLR,0.00,514.00,VWS V15.00,2014-02-25 19:30:00,
2014-02-25 14:32:00,65.3,31.4,29.85,WNW,291,1.0,8.0,28,0.00,,CLR,0.00,646.00,VWS V15.00,2014-02-25 19:32:00,
2014-02-25 14:37:00,65.3,31.4,29.85,SW,219,2.0,10.0,28,0.00,,CLR,0.00,611.00,VWS V15.00,2014-02-25 19:37:00,
2014-02-25 14:42:00,65.0,32.0,29.85,NW,320,6.0,10.0,29,0.00,,CLR,0.00,635.00,VWS V15.00,2014-02-25 19:42:00,
2014-02-25 14:47:00,65.2,32.2,29.85,WNW,291,2.0,6.0,29,0.00,,CLR,0.00,621.00,VWS V15.00,2014-02-25 19:47:00,
2014-02-25 14:52:00,65.8,31.8,29.84,SSE,158,2.0,7.0,28,0.00,,CLR,0.00,611.00,VWS V15.00,2014-02-25 19:52:00,
2014-02-25 14:57:00,65.3,32.3,29.84,South,185,3.0,8.0,29,0.00,,CLR,0.00,602.00,VWS V15.00,2014-02-25 19:57:00,
2014-02-25 15:00:00,66.1,34.6,29.82,WNW,296,5.0,8.0,31,0.00,,CLR,0.00,431.00,VWS V15.00,2014-02-25 20:00:00,
2014-02-25 15:01:00,65.8,33.5,29.83,North,349,3.0,7.0,30,0.00,,CLR,0.00,588.00,VWS V15.00,2014-02-25 20:01:00,
2014-02-25 15:06:00,66.6,33.4,29.83,SSW,200,2.0,6.0,29,0.00,,CLR,0.00,572.00,VWS V15.00,2014-02-25 20:06:00,
2014-02-25 15:11:00,66.3,34.0,29.83,NW,323,3.0,8.0,30,0.00,,CLR,0.00,561.00,VWS V15.00,2014-02-25 20:11:00,
2014-02-25 15:16:00,66.4,33.2,29.83,WNW,299,3.0,6.0,29,0.00,,CLR,0.00,552.00,VWS V15.00,2014-02-25 20:16:00,
2014-02-25 15:21:00,66.6,34.2,29.83,SW,217,5.0,7.0,30,0.00,,CLR,0.00,535.00,VWS V15.00,2014-02-25 20:21:00,
2014-02-25 15:26:00,66.4,33.2,29.83,SSW,209,3.0,6.0,29,0.00,,CLR,0.00,535.00,VWS V15.00,2014-02-25 20:26:00,
2014-02-25 15:30:00,65.6,35.8,29.82,South,186,2.0,7.0,33,0.00,,CLR,0.00,292.00,VWS V15.00,2014-02-25 20:30:00,
2014-02-25 15:31:00,66.0,34.5,29.83,West,265,5.0,8.0,31,0.00,,CLR,0.00,521.00,VWS V15.00,2014-02-25 20:31:00,
2014-02-25 15:36:00,66.3,34.0,29.83,WSW,250,6.0,7.0,30,0.00,,CLR,0.00,491.00,VWS V15.00,2014-02-25 20:36:00,
2014-02-25 15:41:00,66.4,34.9,29.83,NW,322,6.0,8.0,31,0.00,,CLR,0.00,487.00,VWS V15.00,2014-02-25 20:41:00,
2014-02-25 15:46:00,65.8,34.3,29.82,NNW,329,5.0,12.0,31,0.00,,CLR,0.00,484.00,VWS V15.00,2014-02-25 20:46:00,
2014-02-25 15:51:00,66.3,34.8,29.82,SSE,155,2.0,7.0,31,0.00,,CLR,0.00,473.00,VWS V15.00,2014-02-25 20:51:00,
2014-02-25 15:56:00,66.4,34.9,29.82,SSW,208,7.0,8.0,31,0.00,,CLR,0.00,442.00,VWS V15.00,2014-02-25 20:56:00,
2014-02-25 16:00:00,64.3,37.5,29.81,West,265,2.0,6.0,37,0.00,,CLR,0.00,67.00,VWS V15.00,2014-02-25 21:00:00,
2014-02-25 16:01:00,66.1,35.4,29.82,SSE,168,6.0,8.0,32,0.00,,CLR,0.00,428.00,VWS V15.00,2014-02-25 21:01:00,
2014-02-25 16:06:00,66.4,34.9,29.81,West,280,2.0,7.0,31,0.00,,CLR,0.00,398.00,VWS V15.00,2014-02-25 21:06:00,
2014-02-25 16:11:00,66.0,35.3,29.81,WSW,257,6.0,10.0,32,0.00,,CLR,0.00,371.00,VWS V15.00,2014-02-25 21:11:00,
2014-02-25 16:16:00,65.8,35.2,29.81,West,261,3.0,11.0,32,0.00,,CLR,0.00,348.00,VWS V15.00,2014-02-25 21:16:00,
2014-02-25 16:21:00,66.0,35.3,29.81,West,261,2.0,7.0,32,0.00,,CLR,0.00,317.00,VWS V15.00,2014-02-25 21:21:00,
2014-02-25 16:26:00,66.1,35.4,29.81,NW,319,4.0,7.0,32,0.00,,CLR,0.00,292.00,VWS V15.00,2014-02-25 21:26:00,
2014-02-25 16:30:00,63.7,37.6,29.81,West,278,1.0,5.0,38,0.00,,CLR,0.00,56.00,VWS V15.00,2014-02-25 21:30:00,
2014-02-25 16:31:00,65.6,35.0,29.81,West,274,5.0,7.0,32,0.00,,CLR,0.00,285.00,VWS V15.00,2014-02-25 21:31:00,
2014-02-25 16:36:00,65.5,35.7,29.81,SSW,202,1.0,6.0,33,0.00,,CLR,0.00,274.00,VWS V15.00,2014-02-25 21:36:00,
2014-02-25 16:41:00,65.3,36.2,29.82,WNW,295,3.0,6.0,34,0.00,,CLR,0.00,260.00,VWS V15.00,2014-02-25 21:41:00,
2014-02-25 16:46:00,65.2,36.9,29.82,SSE,162,4.0,6.0,35,0.00,,CLR,0.00,230.00,VWS V15.00,2014-02-25 21:46:00,
2014-02-25 16:51:00,64.7,36.4,29.82,WNW,288,7.0,8.0,35,0.00,,CLR,0.00,69.00,VWS V15.00,2014-02-25 21:51:00,
2014-02-25 16:56:00,64.5,37.0,29.81,NW,311,4.0,7.0,36,0.00,,CLR,0.00,65.00,VWS V15.00,2014-02-25 21:56:00,
2014-02-25 17:00:00,62.7,37.4,29.81,West,265,1.0,5.0,39,0.00,,CLR,0.00,16.00,VWS V15.00,2014-02-25 22:00:00,
2014-02-25 17:01:00,64.3,37.5,29.82,SSW,202,3.0,6.0,37,0.00,,CLR,0.00,67.00,VWS V15.00,2014-02-25 22:01:00,
2014-02-25 17:06:00,64.0,37.2,29.81,South,179,6.0,8.0,37,0.00,,CLR,0.00,58.00,VWS V15.00,2014-02-25 22:06:00,
2014-02-25 17:11:00,63.9,37.1,29.81,SW,220,2.0,7.0,37,0.00,,CLR,0.00,53.00,VWS V15.00,2014-02-25 22:11:00,
2014-02-25 17:16:00,63.9,37.8,29.81,WSW,237,4.0,6.0,38,0.00,,CLR,0.00,53.00,VWS V15.00,2014-02-25 22:16:00,
2014-02-25 17:21:00,64.0,37.2,29.81,West,271,4.0,8.0,37,0.00,,CLR,0.00,97.00,VWS V15.00,2014-02-25 22:21:00,
2014-02-25 17:26:00,63.7,37.6,29.81,SSW,195,3.0,8.0,38,0.00,,CLR,0.00,69.00,VWS V15.00,2014-02-25 22:26:00,
2014-02-25 17:30:00,61.2,38.0,29.82,SSW,203,1.0,4.0,42,0.00,,CLR,0.00,0.00,VWS V15.00,2014-02-25 22:30:00,
2014-02-25 17:31:00,63.7,37.6,29.81,SSW,213,2.0,5.0,38,0.00,,CLR,0.00,56.00,VWS V15.00,2014-02-25 22:31:00,
2014-02-25 17:36:00,63.5,37.5,29.81,West,267,2.0,7.0,38,0.00,,CLR,0.00,55.00,VWS V15.00,2014-02-25 22:36:00,
2014-02-25 17:41:00,63.4,37.4,29.81,SSE,161,3.0,6.0,38,0.00,,CLR,0.00,42.00,VWS V15.00,2014-02-25 22:41:00,
2014-02-25 17:46:00,63.2,37.2,29.81,NW,318,3.0,8.0,38,0.00,,CLR,0.00,35.00,VWS V15.00,2014-02-25 22:46:00,
2014-02-25 17:51:00,63.1,37.8,29.81,SSW,202,2.0,7.0,39,0.00,,CLR,0.00,33.00,VWS V15.00,2014-02-25 22:51:00,
2014-02-25 17:56:00,62.9,37.6,29.81,SW,222,5.0,6.0,39,0.00,,CLR,0.00,25.00,VWS V15.00,2014-02-25 22:56:00,
2014-02-25 18:00:00,59.5,38.2,29.82,South,175,1.0,3.0,45,0.00,,CLR,0.00,0.00,VWS V15.00,2014-02-25 23:00:00,
2014-02-25 18:01:00,62.7,37.4,29.81,SSW,192,3.0,5.0,39,0.00,,CLR,0.00,16.00,VWS V15.00,2014-02-25 23:01:00,
2014-02-25 18:06:00,62.4,37.8,29.81,South,172,1.0,5.0,40,0.00,,CLR,0.00,12.00,VWS V15.00,2014-02-25 23:06:00,
2014-02-25 18:11:00,62.1,37.5,29.81,South,191,5.0,5.0,40,0.00,,CLR,0.00,9.00,VWS V15.00,2014-02-25 23:11:00,
2014-02-25 18:16:00,61.8,37.9,29.82,SSW,193,2.0,7.0,41,0.00,,CLR,0.00,5.00,VWS V15.00,2014-02-25 23:16:00,
2014-02-25 18:21:00,61.5,37.6,29.82,South,174,3.0,7.0,41,0.00,,CLR,0.00,0.00,VWS V15.00,2014-02-25 23:21:00,
2014-02-25 18:26:00,61.3,37.4,29.82,SSW,202,1.0,7.0,41,0.00,,CLR,0.00,0.00,VWS V15.00,2014-02-25 23:26:00,
2014-02-25 18:30:00,58.0,38.4,29.84,SSW,203,1.0,1.0,48,0.00,,CLR,0.00,0.00,VWS V15.00,2014-02-25 23:30:00,
2014-02-25 18:31:00,61.0,37.8,29.82,SSE,162,4.0,5.0,42,0.00,,CLR,0.00,0.00,VWS V15.00,2014-02-25 23:31:00,
2014-02-25 18:36:00,60.9,38.3,29.82,South,189,2.0,7.0,43,0.00,,CLR,0.00,0.00,VWS V15.00,2014-02-25 23:36:00,
2014-02-25 18:41:00,60.5,37.9,29.82,South,185,2.0,6.0,43,0.00,,CLR,0.00,0.00,VWS V15.00,2014-02-25 23:41:00,
2014-02-25 18:46:00,60.2,38.2,29.82,South,184,1.0,3.0,44,0.00,,CLR,0.00,0.00,VWS V15.00,2014-02-25 23:46:00,
2014-02-25 18:51:00,59.9,38.0,29.82,SSW,192,1.0,3.0,44,0.00,,CLR,0.00,0.00,VWS V15.00,2014-02-25 23:51:00,
2014-02-25 18:56:00,59.6,38.2,29.82,SSE,152,1.0,3.0,45,0.00,,CLR,0.00,0.00,VWS V15.00,2014-02-25 23:56:00,
2014-02-25 19:00:00,56.7,38.8,29.85,West,267,1.0,3.0,51,0.00,,CLR,0.00,0.00,VWS V15.00,2014-02-26 00:00:00,
2014-02-25 19:01:00,59.5,38.2,29.82,SSE,164,1.0,3.0,45,0.00,,CLR,0.00,0.00,VWS V15.00,2014-02-26 00:01:00,
2014-02-25 19:06:00,59.2,38.5,29.83,South,189,4.0,5.0,46,0.00,,CLR,0.00,0.00,VWS V15.00,2014-02-26 00:06:00,
2014-02-25 19:11:00,59.0,38.3,29.83,SSW,206,0.0,6.0,46,0.00,,CLR,0.00,0.00,VWS V15.00,2014-02-26 00:11:00,
2014-02-25 19:16:00,58.9,38.2,29.83,WSW,251,1.0,3.0,46,0.00,,CLR,0.00,0.00,VWS V15.00,2014-02-26 00:16:00,
2014-02-25 19:21:00,58.4,38.3,29.83,WSW,239,1.0,2.0,47,0.00,,CLR,0.00,0.00,VWS V15.00,2014-02-26 00:21:00,
2014-02-25 19:26:00,58.1,38.5,29.84,WSW,237,0.0,1.0,48,0.00,,CLR,0.00,0.00,VWS V15.00,2014-02-26 00:26:00,
2014-02-25 19:30:00,55.9,38.5,29.84,West,278,1.0,3.0,52,0.00,,CLR,0.00,0.00,VWS V15.00,2014-02-26 00:30:00,
2014-02-25 19:31:00,57.8,38.3,29.84,SSW,203,0.0,1.0,48,0.00,,CLR,0.00,0.00,VWS V15.00,2014-02-26 00:31:00,
2014-02-25 19:36:00,57.6,38.1,29.84,SSW,203,0.0,0.0,48,0.00,,CLR,0.00,0.00,VWS V15.00,2014-02-26 00:36:00,
2014-02-25 19:41:00,57.3,38.3,29.84,SSW,203,0.0,1.0,49,0.00,,CLR,0.00,0.00,VWS V15.00,2014-02-26 00:41:00,
2014-02-25 19:46:00,57.0,38.6,29.84,South,186,0.0,2.0,50,0.00,,CLR,0.00,0.00,VWS V15.00,2014-02-26 00:46:00,
2014-02-25 19:51:00,57.0,38.6,29.84,WSW,246,2.0,3.0,50,0.00,,CLR,0.00,0.00,VWS V15.00,2014-02-26 00:51:00,
2014-02-25 19:56:00,57.0,38.6,29.85,SW,224,1.0,5.0,50,0.00,,CLR,0.00,0.00,VWS V15.00,2014-02-26 00:56:00,
2014-02-25 20:00:00,55.3,38.5,29.85,West,275,2.0,2.0,53,0.00,,CLR,0.00,0.00,VWS V15.00,2014-02-26 01:00:00,
2014-02-25 20:01:00,56.7,38.8,29.85,WSW,248,0.0,3.0,51,0.00,,CLR,0.00,0.00,VWS V15.00,2014-02-26 01:01:00,
2014-02-25 20:06:00,56.5,39.1,29.84,South,176,1.0,5.0,52,0.00,,CLR,0.00,0.00,VWS V15.00,2014-02-26 01:06:00,
2014-02-25 20:11:00,56.5,38.6,29.84,South,181,2.0,5.0,51,0.00,,CLR,0.00,0.00,VWS V15.00,2014-02-26 01:11:00,
2014-02-25 20:16:00,56.5,38.6,29.84,SW,220,1.0,3.0,51,0.00,,CLR,0.00,0.00,VWS V15.00,2014-02-26 01:16:00,
2014-02-25 20:21:00,56.3,38.4,29.85,SSW,192,1.0,2.0,51,0.00,,CLR,0.00,0.00,VWS V15.00,2014-02-26 01:21:00,
2014-02-25 20:26:00,56.0,38.6,29.85,WSW,237,2.0,5.0,52,0.00,,CLR,0.00,0.00,VWS V15.00,2014-02-26 01:26:00,
2014-02-25 20:30:00,53.9,38.1,29.85,WNW,287,3.0,3.0,55,0.00,,CLR,0.00,0.00,VWS V15.00,2014-02-26 01:30:00,
2014-02-25 20:31:00,55.9,38.5,29.84,West,260,2.0,3.0,52,0.00,,CLR,0.00,0.00,VWS V15.00,2014-02-26 01:31:00,
2014-02-25 20:36:00,55.9,38.5,29.84,West,267,2.0,5.0,52,0.00,,CLR,0.00,0.00,VWS V15.00,2014-02-26 01:36:00,
2014-02-25 20:41:00,55.9,38.5,29.85,West,263,3.0,4.0,52,0.00,,CLR,0.00,0.00,VWS V15.00,2014-02-26 01:41:00,
2014-02-25 20:46:00,55.9,38.5,29.85,WNW,287,4.0,6.0,52,0.00,,CLR,0.00,0.00,VWS V15.00,2014-02-26 01:46:00,
2014-02-25 20:51:00,55.9,38.5,29.85,West,270,1.0,8.0,52,0.00,,CLR,0.00,0.00,VWS V15.00,2014-02-26 01:51:00,
2014-02-25 20:56:00,55.6,38.3,29.85,West,265,2.0,3.0,52,0.00,,CLR,0.00,0.00,VWS V15.00,2014-02-26 01:56:00,
2014-02-25 21:00:00,52.5,37.7,29.85,NW,312,0.0,1.0,57,0.00,,CLR,0.00,0.00,VWS V15.00,2014-02-26 02:00:00,
2014-02-25 21:01:00,55.3,38.5,29.85,West,265,1.0,2.0,53,0.00,,CLR,0.00,0.00,VWS V15.00,2014-02-26 02:01:00,
2014-02-25 21:06:00,55.1,38.3,29.85,West,281,2.0,3.0,53,0.00,,CLR,0.00,0.00,VWS V15.00,2014-02-26 02:06:00,
2014-02-25 21:11:00,55.0,38.7,29.85,WNW,298,1.0,3.0,54,0.00,,CLR,0.00,0.00,VWS V15.00,2014-02-26 02:11:00,
2014-02-25 21:16:00,54.7,38.4,29.85,West,274,0.0,3.0,54,0.00,,CLR,0.00,0.00,VWS V15.00,2014-02-26 02:16:00,
2014-02-25 21:21:00,54.4,38.1,29.85,West,277,2.0,2.0,54,0.00,,CLR,0.00,0.00,VWS V15.00,2014-02-26 02:21:00,
2014-02-25 21:26:00,54.1,38.3,29.85,West,264,1.0,2.0,55,0.00,,CLR,0.00,0.00,VWS V15.00,2014-02-26 02:26:00,
2014-02-25 21:30:00,49.1,37.5,29.85,NW,312,0.0,0.0,64,0.00,,CLR,0.00,0.00,VWS V15.00,2014-02-26 02:30:00,
2014-02-25 21:31:00,53.8,38.0,29.85,West,270,3.0,3.0,55,0.00,,CLR,0.00,0.00,VWS V15.00,2014-02-26 02:31:00,
2014-02-25 21:36:00,53.8,38.0,29.85,West,271,1.0,3.0,55,0.00,,CLR,0.00,0.00,VWS V15.00,2014-02-26 02:36:00,
2014-02-25 21:37:00,53.8,38.0,29.84,WNW,288,1.0,2.0,55,0.00,,CLR,0.00,0.00,VWS V15.00,2014-02-26 02:37:00,
2014-02-25 21:42:00,53.6,37.8,29.84,WSW,247,1.0,3.0,55,0.00,,CLR,0.00,0.00,VWS V15.00,2014-02-26 02:42:00,
2014-02-25 21:47:00,53.5,37.8,29.85,NW,306,0.0,2.0,55,0.00,,CLR,0.00,0.00,VWS V15.00,2014-02-26 02:47:00,
2014-02-25 21:52:00,53.2,37.9,29.85,NW,312,1.0,1.0,56,0.00,,CLR,0.00,0.00,VWS V15.00,2014-02-26 02:52:00,
2014-02-25 21:57:00,52.9,37.7,29.85,NW,312,1.0,1.0,56,0.00,,CLR,0.00,0.00,VWS V15.00,2014-02-26 02:57:00,
2014-02-25 22:00:00,46.5,36.9,29.85,NW,312,0.0,0.0,69,0.00,,CLR,0.00,0.00,VWS V15.00,2014-02-26 03:00:00,
2014-02-25 22:02:00,52.5,37.7,29.84,NW,312,0.0,1.0,57,0.00,,CLR,0.00,0.00,VWS V15.00,2014-02-26 03:02:00,
2014-02-25 22:07:00,52.0,37.7,29.85,NW,312,0.0,0.0,58,0.00,,CLR,0.00,0.00,VWS V15.00,2014-02-26 03:07:00,
2014-02-25 22:12:00,51.4,37.6,29.85,NW,312,0.0,0.0,59,0.00,,CLR,0.00,0.00,VWS V15.00,2014-02-26 03:12:00,
2014-02-25 22:17:00,50.8,37.4,29.85,NW,312,0.0,0.0,60,0.00,,CLR,0.00,0.00,VWS V15.00,2014-02-26 03:17:00,
2014-02-25 22:22:00,50.2,37.3,29.85,NW,312,0.0,0.0,61,0.00,,CLR,0.00,0.00,VWS V15.00,2014-02-26 03:22:00,
2014-02-25 22:27:00,49.4,37.3,29.85,NW,312,0.0,0.0,63,0.00,,CLR,0.00,0.00,VWS V15.00,2014-02-26 03:27:00,
2014-02-25 22:30:00,45.8,36.6,29.85,NW,312,0.0,0.0,70,0.00,,CLR,0.00,0.00,VWS V15.00,2014-02-26 03:30:00,
2014-02-25 22:32:00,48.9,37.3,29.85,NW,312,0.0,0.0,64,0.00,,CLR,0.00,0.00,VWS V15.00,2014-02-26 03:32:00,
2014-02-25 22:37:00,48.6,37.0,29.85,NW,312,0.0,0.0,64,0.00,,CLR,0.00,0.00,VWS V15.00,2014-02-26 03:37:00,
2014-02-25 22:42:00,48.0,36.8,29.85,NW,312,0.0,0.0,65,0.00,,CLR,0.00,0.00,VWS V15.00,2014-02-26 03:42:00,
2014-02-25 22:47:00,47.3,36.9,29.84,NW,312,0.0,0.0,67,0.00,,CLR,0.00,0.00,VWS V15.00,2014-02-26 03:47:00,
2014-02-25 22:52:00,47.0,36.6,29.85,NW,312,0.0,0.0,67,0.00,,CLR,0.00,0.00,VWS V15.00,2014-02-26 03:52:00,
2014-02-25 22:57:00,46.8,36.8,29.85,NW,312,0.0,0.0,68,0.00,,CLR,0.00,0.00,VWS V15.00,2014-02-26 03:57:00,
2014-02-25 23:00:00,46.7,36.7,29.85,West,263,0.0,0.0,68,0.00,,CLR,0.00,0.00,VWS V15.00,2014-02-26 04:00:00,
2014-02-25 23:02:00,46.5,36.9,29.85,NW,312,0.0,0.0,69,0.00,,CLR,0.00,0.00,VWS V15.00,2014-02-26 04:02:00,
2014-02-25 23:07:00,46.2,36.6,29.85,NW,312,0.0,0.0,69,0.00,,CLR,0.00,0.00,VWS V15.00,2014-02-26 04:07:00,
2014-02-25 23:12:00,46.1,36.9,29.85,NW,312,0.0,0.0,70,0.00,,CLR,0.00,0.00,VWS V15.00,2014-02-26 04:12:00,
2014-02-25 23:17:00,46.0,37.1,29.85,NW,312,0.0,0.0,71,0.00,,CLR,0.00,0.00,VWS V15.00,2014-02-26 04:17:00,
2014-02-25 23:22:00,45.8,37.0,29.84,NW,312,0.0,0.0,71,0.00,,CLR,0.00,0.00,VWS V15.00,2014-02-26 04:22:00,
2014-02-25 23:27:00,45.8,37.3,29.84,NW,312,0.0,0.0,72,0.00,,CLR,0.00,0.00,VWS V15.00,2014-02-26 04:27:00,
2014-02-25 23:30:00,46.7,31.9,29.84,West,263,0.0,0.0,56,0.00,,CLR,0.00,0.00,VWS V15.00,2014-02-26 04:30:00,
2014-02-25 23:32:00,45.8,36.6,29.85,NW,312,0.0,0.0,70,0.00,,CLR,0.00,0.00,VWS V15.00,2014-02-26 04:32:00,
2014-02-25 23:37:00,46.2,37.3,29.86,WNW,302,0.0,0.0,71,0.00,,CLR,0.00,0.00,VWS V15.00,2014-02-26 04:37:00,
2014-02-25 23:42:00,46.2,37.3,29.86,West,263,0.0,2.0,71,0.00,,CLR,0.00,0.00,VWS V15.00,2014-02-26 04:42:00,
2014-02-25 23:47:00,46.2,36.2,29.86,West,263,0.0,0.0,68,0.00,,CLR,0.00,0.00,VWS V15.00,2014-02-26 04:47:00,
2014-02-25 23:51:00,46.4,36.0,29.86,West,263,0.0,0.0,67,0.00,,CLR,0.00,0.00,VWS V15.00,2014-02-26 04:51:00,
2014-02-25 23:56:00,46.5,36.2,29.86,West,263,0.0,0.0,67,0.00,,CLR,0.00,0.00,VWS V15.00,2014-02-26 04:56:00,